Startpagina
METAR-TAF:

METAR-TAF

Vliegvelden :

Aeropuerto de Gran Canaria

Gran Canaria, Spanje

breedte: 27-56N, lengte: 015-23W, hoogte: 23 m

Actueel weer

Dit bericht is 22 minuten geleden gemaakt, om 05:00 UTC
Wind 8 kt uit het noordnoordwesten
Temperatuur 19°C
Vochtigheid 64%
Druk 1015 hPa
Zicht 10 km of meer
Weinig wolken op 3000 ft
Gebroken wolken op 4500 ft

METAR: GCLP 210500Z 34008KT 9999 FEW030 BKN045 19/12 Q1015 NOSIG

Tijdstip: 06:22 (05:22 UTC)

Verwachting

Dit bericht is 3 uur en het 22 minuten geleden gemaakt, om 02:00 UTC
Verwachting geldig van 21 om 03 UTC tot 22 om 03 UTC
Wind 11 kt uit het noordnoordwesten
Zicht 10 km of meer
Weinig wolken op 3000 ft

TAF: GCLP 210200Z 2103/2203 34011KT 9999 FEW030 TX23/2115Z TN16/2105Z

Waarnemingen en weersverwachtingen van meer dan 4000 vliegvelden (METAR en TAF).

De beschikbare stations zijn de gele en rode punten op de kaart.

Ga met uw muis naar het station om de naam te zien.

Klik dan om waarnemingen en weersverwachtingen te zien.

kaart wijzigen: klik op de groene knoppen met een zwart kruis om in te zoomen, op de groene knop met een streepje om uit te zoomen of op de groene pijlen voor aangrenzende kaarten.


METAR-TAF: